Serenade Of The Seas — C6FV8 — position and weather

sailwx.info

Track history (hours):
 
Tides and Currents Weather Stations Pressure Air Temp Water Temp Dewpoint Dewpoint Depression Visibility Wind Speed Wind Dir Waves Ship Positions

Serenade Of The Seas

Operator: Royal Caribbean Cruises Ltd

Last reported at 2017-Jan-19 20:32 UTC. Time now 2017-Jan-19 21:21 UTC.
Position N 17°07' W 061°51'.

Length 294 m; draft 8.5 m.

Type: Ship. MMSI: 311492000.

Date/timePositionNaut miles runAvg speedWind from/ knotsBaromVisibWave heightAir tempDewpointWater temp
2017-Jan-19 20:32N 17°07' W 061°51'0 0.0
2017-Jan-19 19:32N 17°07' W 061°51'0 0.0
2017-Jan-19 18:32N 17°07' W 061°51'0 0.0
2017-Jan-19 17:32N 17°07' W 061°51'0 0.0
2017-Jan-19 16:29N 17°07' W 061°51'0 0.0
2017-Jan-19 15:32N 17°07' W 061°51'0 0.0
2017-Jan-19 14:32N 17°07' W 061°51'0 0.0
2017-Jan-19 13:31N 17°07' W 061°51'0 0.0
2017-Jan-19 12:31N 17°07' W 061°51'0 0.1
2017-Jan-19 11:33N 17°07' W 061°51'5 5.2
2017-Jan-19 10:33N 17°09' W 061°56'8 7.7
2017-Jan-19 09:33N 17°03' W 062°01'10 9.7
2017-Jan-19 08:33N 16°53' W 062°01'10 9.8
2017-Jan-19 07:33N 16°43' W 062°02'10 9.7
2017-Jan-19 06:33N 16°34' W 062°03'10 9.7
2017-Jan-19 05:33N 16°24' W 062°03'10 9.7
2017-Jan-19 04:33N 16°14' W 062°04'41 9.6
2017-Jan-19 00:14N 15°36' W 061°47'7 9.7
2017-Jan-18 23:29N 15°31' W 061°42'9 9.7
2017-Jan-18 22:31N 15°25' W 061°34'55 3.0
2017-Jan-18 04:33N 16°11' W 062°06'1010.4
2017-Jan-18 03:33N 16°19' W 062°12'1010.4
2017-Jan-18 02:33N 16°28' W 062°17'1010.4
2017-Jan-18 01:33N 16°37' W 062°23'1010.4
2017-Jan-18 00:33N 16°46' W 062°29'63 3.7
2017-Jan-17 07:33N 17°37' W 063°08'9 9.3
2017-Jan-17 06:33N 17°43' W 063°15'12 9.7
2017-Jan-17 05:20N 17°49' W 063°26'8 9.7
2017-Jan-17 04:33N 17°52' W 063°33'10 9.7
2017-Jan-17 03:33N 17°57' W 063°42'50 9.7
2017-Jan-16 22:25N 18°19' W 064°29'8 8.9
2017-Jan-16 21:33N 18°24' W 064°35'1 0.1
2017-Jan-16 11:27N 18°25' W 064°36'8 8.6
2017-Jan-16 10:30N 18°30' W 064°29'1617.4
2017-Jan-16 09:33N 18°41' W 064°42'1717.2
2017-Jan-16 08:33N 18°47' W 064°59'34616.0
2017-Jan-15 11:00N 20°12' W 070°54'42518.5 090 / 201015.0 5.4 25.0 27.0
2017-Jan-14 12:00N 22°30' W 078°06'22418.0 080 / 251019.0 5.4 23.0
2017-Jan-13 23:33N 25°57' W 079°39'1414.2
2017-Jan-13 22:33N 26°04' W 079°53'1212.5
2017-Jan-13 21:33N 26°06' W 080°07'0 0.3
2017-Jan-13 20:26N 26°05' W 080°07'0 0.0
2017-Jan-13 19:26N 26°05' W 080°07'0 0.0
2017-Jan-13 18:26N 26°05' W 080°07'0 0.0
2017-Jan-13 17:29N 26°05' W 080°07'0 0.0
2017-Jan-13 16:29N 26°05' W 080°07'0 0.0
2017-Jan-13 15:32N 26°05' W 080°07'0 0.0
2017-Jan-13 14:32N 26°05' W 080°07'0 0.0
2017-Jan-13 13:32N 26°05' W 080°07'0 0.0
2017-Jan-13 12:32N 26°05' W 080°07'0 0.2
2017-Jan-13 11:33N 26°05' W 080°07'8 8.1
2017-Jan-13 10:33N 26°01' W 079°59'1616.5
2017-Jan-13 09:33N 25°45' W 079°54'1716.6
2017-Jan-13 08:33N 25°29' W 079°48'  
Track history (hours):
 
Tides and Currents Weather Stations Pressure Air Temp Water Temp Dewpoint Dewpoint Depression Visibility Wind Speed Wind Dir Waves Ship Positions

Serenade Of The Seas

Operator: Royal Caribbean Cruises Ltd

Last reported at 2017-Jan-19 20:32 UTC. Time now 2017-Jan-19 21:21 UTC.
Position N 17°07' W 061°51'.

Length 294 m; draft 8.5 m.

Type: Ship. MMSI: 311492000.

Date/timePositionNaut miles runAvg speedWind from/ knotsBaromVisibWave heightAir tempDewpointWater temp
2017-Jan-19 20:32N 17°07' W 061°51'0 0.0
2017-Jan-19 19:32N 17°07' W 061°51'0 0.0
2017-Jan-19 18:32N 17°07' W 061°51'0 0.0
2017-Jan-19 17:32N 17°07' W 061°51'0 0.0
2017-Jan-19 16:29N 17°07' W 061°51'0 0.0
2017-Jan-19 15:32N 17°07' W 061°51'0 0.0
2017-Jan-19 14:32N 17°07' W 061°51'0 0.0
2017-Jan-19 13:31N 17°07' W 061°51'0 0.0
2017-Jan-19 12:31N 17°07' W 061°51'0 0.1
2017-Jan-19 11:33N 17°07' W 061°51'5 5.2
2017-Jan-19 10:33N 17°09' W 061°56'8 7.7
2017-Jan-19 09:33N 17°03' W 062°01'10 9.7
2017-Jan-19 08:33N 16°53' W 062°01'10 9.8
2017-Jan-19 07:33N 16°43' W 062°02'10 9.7
2017-Jan-19 06:33N 16°34' W 062°03'10 9.7
2017-Jan-19 05:33N 16°24' W 062°03'10 9.7
2017-Jan-19 04:33N 16°14' W 062°04'41 9.6
2017-Jan-19 00:14N 15°36' W 061°47'7 9.7
2017-Jan-18 23:29N 15°31' W 061°42'9 9.7
2017-Jan-18 22:31N 15°25' W 061°34'55 3.0
2017-Jan-18 04:33N 16°11' W 062°06'1010.4
2017-Jan-18 03:33N 16°19' W 062°12'1010.4
2017-Jan-18 02:33N 16°28' W 062°17'1010.4
2017-Jan-18 01:33N 16°37' W 062°23'1010.4
2017-Jan-18 00:33N 16°46' W 062°29'63 3.7
2017-Jan-17 07:33N 17°37' W 063°08'9 9.3
2017-Jan-17 06:33N 17°43' W 063°15'12 9.7
2017-Jan-17 05:20N 17°49' W 063°26'8 9.7
2017-Jan-17 04:33N 17°52' W 063°33'10 9.7
2017-Jan-17 03:33N 17°57' W 063°42'50 9.7
2017-Jan-16 22:25N 18°19' W 064°29'8 8.9
2017-Jan-16 21:33N 18°24' W 064°35'1 0.1
2017-Jan-16 11:27N 18°25' W 064°36'8 8.6
2017-Jan-16 10:30N 18°30' W 064°29'1617.4
2017-Jan-16 09:33N 18°41' W 064°42'1717.2
2017-Jan-16 08:33N 18°47' W 064°59'34616.0
2017-Jan-15 11:00N 20°12' W 070°54'42518.5 090 / 201015.0 5.4 25.0 27.0
2017-Jan-14 12:00N 22°30' W 078°06'22418.0 080 / 251019.0 5.4 23.0
2017-Jan-13 23:33N 25°57' W 079°39'1414.2
2017-Jan-13 22:33N 26°04' W 079°53'1212.5
2017-Jan-13 21:33N 26°06' W 080°07'0 0.3
2017-Jan-13 20:26N 26°05' W 080°07'0 0.0
2017-Jan-13 19:26N 26°05' W 080°07'0 0.0
2017-Jan-13 18:26N 26°05' W 080°07'0 0.0
2017-Jan-13 17:29N 26°05' W 080°07'0 0.0
2017-Jan-13 16:29N 26°05' W 080°07'0 0.0
2017-Jan-13 15:32N 26°05' W 080°07'0 0.0
2017-Jan-13 14:32N 26°05' W 080°07'0 0.0
2017-Jan-13 13:32N 26°05' W 080°07'0 0.0
2017-Jan-13 12:32N 26°05' W 080°07'0 0.2
2017-Jan-13 11:33N 26°05' W 080°07'8 8.1
2017-Jan-13 10:33N 26°01' W 079°59'1616.5
2017-Jan-13 09:33N 25°45' W 079°54'1716.6
2017-Jan-13 08:33N 25°29' W 079°48'  

Dump ship's entire track history